createdAt,value
2018-08-16T00:02:23.236Z,58.50
2018-08-16T00:04:51.955Z,58.30
2018-08-16T00:07:27.721Z,58.50
2018-08-16T00:10:20.418Z,58.30
2018-08-16T00:12:57.349Z,58.40
2018-08-16T00:15:29.473Z,58.90
2018-08-16T00:18:02.803Z,59.20
2018-08-16T00:20:31.778Z,59.40
2018-08-16T00:23:00.320Z,59.30
2018-08-16T00:25:29.598Z,59.40
2018-08-16T00:27:58.279Z,59.40
2018-08-16T00:30:26.797Z,59.30
2018-08-16T00:32:55.482Z,59.50
2018-08-16T00:35:24.136Z,59.80
2018-08-16T00:37:52.734Z,59.80
2018-08-16T00:40:21.429Z,59.70
2018-08-16T00:42:50.098Z,59.70
2018-08-16T00:45:18.667Z,59.70
2018-08-16T00:47:48.656Z,59.90
2018-08-16T00:50:17.331Z,59.90
2018-08-16T00:52:45.947Z,60.10
2018-08-16T00:55:15.107Z,60.30
2018-08-16T00:57:44.514Z,60.50
2018-08-16T01:00:17.535Z,60.60
2018-08-16T01:02:46.695Z,60.50
2018-08-16T01:05:18.365Z,61.00
2018-08-16T01:07:48.799Z,61.10
2018-08-16T01:10:17.947Z,61.10
2018-08-16T01:12:47.639Z,61.10
2018-08-16T01:15:17.189Z,61.20
2018-08-16T01:17:46.031Z,61.40
2018-08-16T01:20:16.830Z,61.20
2018-08-16T01:22:47.349Z,61.90
2018-08-16T01:25:16.933Z,61.90
2018-08-16T01:27:45.585Z,62.00
2018-08-16T01:30:14.166Z,62.20
2018-08-16T01:32:42.769Z,62.90
2018-08-16T01:35:11.395Z,62.80
2018-08-16T01:37:39.962Z,62.60
2018-08-16T01:40:09.124Z,63.50
2018-08-16T01:42:38.843Z,62.90
2018-08-16T01:45:08.041Z,62.80
2018-08-16T01:47:37.730Z,63.50
2018-08-16T01:50:07.045Z,63.10
2018-08-16T01:52:37.600Z,63.20
2018-08-16T01:55:07.015Z,63.00
2018-08-16T01:57:35.973Z,63.20
2018-08-16T02:00:07.665Z,63.20
2018-08-16T02:02:37.294Z,63.80
2018-08-16T02:05:08.812Z,63.80
2018-08-16T02:07:37.447Z,64.20
2018-08-16T02:10:07.166Z,64.10
2018-08-16T02:12:35.846Z,64.10
2018-08-16T02:15:05.451Z,64.20
2018-08-16T02:17:33.992Z,64.10
2018-08-16T02:20:02.612Z,64.20
2018-08-16T02:22:31.147Z,64.40
2018-08-16T02:24:59.830Z,64.60
2018-08-16T02:27:28.368Z,64.90
2018-08-16T02:29:57.051Z,65.00
2018-08-16T02:32:25.693Z,64.80
2018-08-16T02:34:55.390Z,64.90
2018-08-16T02:37:24.015Z,65.30
2018-08-16T02:39:52.609Z,65.00
2018-08-16T02:42:21.247Z,64.80
2018-08-16T02:44:49.974Z,65.00
2018-08-16T02:47:19.232Z,65.00
2018-08-16T02:49:47.847Z,65.20
2018-08-16T02:52:16.509Z,65.30
2018-08-16T02:54:45.096Z,66.30
2018-08-16T02:57:14.911Z,65.60
2018-08-16T02:59:43.630Z,65.70
2018-08-16T03:02:12.216Z,66.20
2018-08-16T03:04:40.799Z,66.10
2018-08-16T03:07:10.412Z,66.10
2018-08-16T03:09:38.991Z,66.50
2018-08-16T03:12:10.466Z,66.70
2018-08-16T03:14:40.239Z,66.70
2018-08-16T03:17:08.786Z,66.10
2018-08-16T03:19:37.327Z,66.70
2018-08-16T03:22:06.140Z,66.70
2018-08-16T03:24:35.698Z,66.70
2018-08-16T03:27:06.406Z,66.70
2018-08-16T03:29:35.087Z,66.50
2018-08-16T03:32:03.775Z,66.60
2018-08-16T03:34:32.467Z,66.70
2018-08-16T03:37:01.190Z,66.60
2018-08-16T03:41:59.233Z,66.80
2018-08-16T03:44:28.368Z,67.30
2018-08-16T03:46:57.087Z,67.10
2018-08-16T03:49:25.668Z,67.10
2018-08-16T03:51:54.203Z,67.00
2018-08-16T03:54:22.787Z,66.70
2018-08-16T03:56:52.395Z,67.80
2018-08-16T03:59:22.075Z,67.00
2018-08-16T04:01:51.739Z,66.70
2018-08-16T04:04:21.439Z,66.40
2018-08-16T04:09:20.075Z,67.70
2018-08-16T04:11:48.919Z,67.10
2018-08-16T04:14:17.509Z,66.90
2018-08-16T04:16:46.079Z,66.70
2018-08-16T04:19:14.769Z,67.10
2018-08-16T04:21:44.339Z,67.10
2018-08-16T04:24:13.922Z,67.00
2018-08-16T04:26:42.462Z,66.80
2018-08-16T04:29:11.093Z,66.90
2018-08-16T04:31:40.733Z,66.80
2018-08-16T04:34:09.309Z,66.50
2018-08-16T04:36:37.955Z,65.80
2018-08-16T04:39:08.254Z,65.90
2018-08-16T04:41:37.608Z,66.20
2018-08-16T04:44:06.878Z,66.50
2018-08-16T04:46:37.021Z,66.20
2018-08-16T04:49:05.651Z,65.80
2018-08-16T04:51:35.252Z,65.90
2018-08-16T04:54:04.046Z,65.90
2018-08-16T04:56:32.795Z,65.70
2018-08-16T04:59:01.347Z,65.70
2018-08-16T05:01:29.958Z,65.70
2018-08-16T05:03:58.478Z,65.70
2018-08-16T05:06:27.047Z,65.90
2018-08-16T05:08:55.689Z,66.00
2018-08-16T05:11:24.520Z,65.80
2018-08-16T05:16:22.001Z,65.50
2018-08-16T05:18:53.449Z,65.70
2018-08-16T05:21:22.633Z,65.70
2018-08-16T05:23:52.227Z,65.70
2018-08-16T05:26:22.248Z,65.80
2018-08-16T05:31:19.200Z,65.20
2018-08-16T05:33:47.854Z,65.30
2018-08-16T05:36:16.459Z,65.40
2018-08-16T05:38:45.434Z,65.20
2018-08-16T05:41:15.244Z,64.80
2018-08-16T05:43:43.889Z,64.30
2018-08-16T05:46:15.072Z,64.50
2018-08-16T05:48:47.808Z,64.60
2018-08-16T05:51:17.573Z,64.80
2018-08-16T05:53:46.976Z,65.00
2018-08-16T05:56:21.856Z,64.80
2018-08-16T05:58:50.692Z,64.70
2018-08-16T06:01:19.381Z,64.80
2018-08-16T06:03:48.152Z,64.80
2018-08-16T06:06:16.894Z,64.20
2018-08-16T06:08:52.650Z,64.10
2018-08-16T06:11:23.342Z,64.10
2018-08-16T06:13:55.324Z,64.10
2018-08-16T06:16:26.187Z,64.00
2018-08-16T06:18:54.873Z,63.80
2018-08-16T06:21:23.546Z,63.50
2018-08-16T06:23:52.216Z,63.20
2018-08-16T06:26:20.791Z,62.90
2018-08-16T06:28:50.437Z,62.50
2018-08-16T06:31:20.798Z,62.20
2018-08-16T06:33:50.612Z,62.00
2018-08-16T06:36:19.370Z,62.00
2018-08-16T06:38:50.383Z,62.00
2018-08-16T06:41:19.696Z,60.20
2018-08-16T06:43:48.352Z,59.40
2018-08-16T06:46:18.501Z,59.20
2018-08-16T06:48:47.748Z,59.10
2018-08-16T06:51:16.427Z,59.30
2018-08-16T06:53:45.069Z,59.50
2018-08-16T06:56:18.942Z,59.70
2018-08-16T06:58:47.519Z,60.00
2018-08-16T07:01:17.263Z,60.00
2018-08-16T07:03:45.823Z,59.50
2018-08-16T07:06:14.407Z,59.40
2018-08-16T07:08:42.914Z,59.10
2018-08-16T07:11:12.612Z,58.70
2018-08-16T07:13:41.958Z,58.50
2018-08-16T07:16:10.505Z,58.40
2018-08-16T07:18:40.767Z,57.90
2018-08-16T07:21:09.442Z,57.90
2018-08-16T07:23:38.031Z,57.80
2018-08-16T07:26:06.778Z,57.30
2018-08-16T07:28:35.366Z,57.10
2018-08-16T07:31:04.216Z,57.00
2018-08-16T07:33:33.416Z,57.20
2018-08-16T07:36:03.840Z,57.00
2018-08-16T07:38:32.906Z,56.60
2018-08-16T07:41:01.811Z,56.20
2018-08-16T07:43:31.192Z,56.10
2018-08-16T07:46:17.822Z,55.90
2018-08-16T07:48:47.109Z,55.80
2018-08-16T07:51:17.906Z,55.90
2018-08-16T07:53:48.229Z,55.80
2018-08-16T07:56:18.801Z,55.30
2018-08-16T07:58:49.225Z,55.10
2018-08-16T08:01:18.128Z,55.00
2018-08-16T08:04:04.064Z,55.00
2018-08-16T08:07:12.816Z,54.80
2018-08-16T08:15:34.964Z,54.80
2018-08-16T08:18:03.605Z,54.40
2018-08-16T08:20:36.872Z,54.70
2018-08-16T08:23:18.566Z,54.40
2018-08-16T08:25:55.912Z,54.40
2018-08-16T08:28:28.789Z,54.40
2018-08-16T08:31:00.088Z,54.40
2018-08-16T08:33:31.422Z,54.00
2018-08-16T08:36:12.014Z,53.70
2018-08-16T08:38:45.029Z,53.20
2018-08-16T08:41:17.761Z,53.00
2018-08-16T08:43:59.010Z,53.00
2018-08-16T08:46:31.165Z,52.50
2018-08-16T08:49:02.302Z,52.50
2018-08-16T08:51:34.048Z,52.10
2018-08-16T08:54:18.669Z,51.90
2018-08-16T08:56:59.145Z,51.80
2018-08-16T08:59:27.939Z,51.40
2018-08-16T09:01:56.451Z,50.90
2018-08-16T09:04:26.023Z,50.70
2018-08-16T09:06:56.616Z,50.70
2018-08-16T09:09:27.202Z,50.20
2018-08-16T09:12:08.910Z,50.30
2018-08-16T09:14:49.440Z,49.70
2018-08-16T09:17:22.920Z,50.10
2018-08-16T09:19:59.941Z,50.00
2018-08-16T09:22:29.188Z,49.50
2018-08-16T09:24:59.259Z,49.60
2018-08-16T09:27:27.808Z,49.10
2018-08-16T09:30:18.771Z,49.10
2018-08-16T09:33:13.025Z,49.10
2018-08-16T09:39:19.423Z,48.80
2018-08-16T09:42:09.061Z,49.50
2018-08-16T09:44:52.588Z,49.20
2018-08-16T09:48:08.621Z,48.60
2018-08-16T09:51:00.248Z,48.50
2018-08-16T09:53:38.372Z,48.00
2018-08-16T09:59:38.800Z,47.70
2018-08-16T10:02:11.809Z,47.70
2018-08-16T10:08:12.687Z,46.70
2018-08-16T10:11:02.707Z,46.10
2018-08-16T10:13:48.591Z,46.20
2018-08-16T10:16:28.734Z,45.50
2018-08-16T10:19:15.907Z,45.90
2018-08-16T10:22:05.781Z,45.20
2018-08-16T10:24:44.809Z,45.30
2018-08-16T10:27:13.703Z,45.00
2018-08-16T10:29:43.727Z,44.90
2018-08-16T10:32:13.124Z,45.00
2018-08-16T10:34:41.583Z,44.00
2018-08-16T10:37:10.225Z,44.10
2018-08-16T10:39:39.784Z,44.80
2018-08-16T10:42:10.113Z,43.90
2018-08-16T10:44:40.059Z,44.20
2018-08-16T10:47:11.678Z,44.10
2018-08-16T10:52:27.515Z,43.70
2018-08-16T10:54:57.199Z,43.30
2018-08-16T10:57:25.819Z,43.50
2018-08-16T10:59:56.316Z,43.10
2018-08-16T11:02:25.495Z,43.10
2018-08-16T11:04:54.183Z,43.80
2018-08-16T11:07:22.781Z,42.80
2018-08-16T11:12:21.251Z,42.60
2018-08-16T11:17:17.992Z,42.20
2018-08-16T11:19:46.568Z,42.10
2018-08-16T11:22:15.048Z,42.30
2018-08-16T11:24:44.500Z,42.20
2018-08-16T11:27:14.284Z,42.20
2018-08-16T11:29:42.958Z,42.90
2018-08-16T11:32:11.471Z,41.60
2018-08-16T11:35:02.235Z,41.60
2018-08-16T11:37:30.777Z,41.50
2018-08-16T11:39:59.405Z,41.30
2018-08-16T11:42:27.912Z,41.50
2018-08-16T11:44:57.243Z,41.40
2018-08-16T11:47:26.545Z,40.90
2018-08-16T11:49:55.999Z,41.00
2018-08-16T11:52:27.477Z,40.80
2018-08-16T11:54:57.647Z,40.80
2018-08-16T11:57:28.725Z,40.40
2018-08-16T11:59:59.345Z,40.10
2018-08-16T12:02:30.570Z,40.10
2018-08-16T12:05:02.695Z,40.20
2018-08-16T12:07:34.282Z,39.80
2018-08-16T12:10:07.689Z,39.70
2018-08-16T12:12:39.430Z,39.70
2018-08-16T12:15:11.277Z,40.90
2018-08-16T12:17:39.995Z,40.20
2018-08-16T12:20:11.718Z,40.50
2018-08-16T12:22:40.494Z,40.40
2018-08-16T12:25:10.063Z,40.00
2018-08-16T12:27:38.598Z,40.10
2018-08-16T12:30:09.742Z,39.50
2018-08-16T12:32:38.477Z,39.20
2018-08-16T12:35:07.888Z,39.80
2018-08-16T12:37:36.605Z,39.60
2018-08-16T12:40:07.243Z,40.10
2018-08-16T12:42:36.845Z,39.30
2018-08-16T12:45:06.117Z,39.30
2018-08-16T12:47:35.500Z,40.00
2018-08-16T12:50:05.171Z,39.40
2018-08-16T12:52:34.754Z,39.70
2018-08-16T12:55:04.031Z,39.60
2018-08-16T12:57:34.784Z,39.30
2018-08-16T13:00:04.316Z,39.30
2018-08-16T13:05:25.953Z,38.80
2018-08-16T13:08:07.466Z,38.40
2018-08-16T13:10:45.153Z,38.60
2018-08-16T13:15:42.643Z,38.40
2018-08-16T13:18:11.127Z,38.40
2018-08-16T13:20:39.794Z,38.40
2018-08-16T13:23:08.928Z,38.10
2018-08-16T13:25:38.064Z,38.10
2018-08-16T13:28:06.671Z,38.40
2018-08-16T13:30:35.204Z,38.00
2018-08-16T13:33:03.711Z,38.40
2018-08-16T13:35:32.215Z,38.00
2018-08-16T13:38:00.796Z,37.70
2018-08-16T13:40:29.442Z,37.90
2018-08-16T13:42:58.016Z,37.40
2018-08-16T13:45:26.695Z,37.40
2018-08-16T13:47:55.228Z,37.70
2018-08-16T13:50:23.743Z,37.20
2018-08-16T13:52:52.341Z,37.30
2018-08-16T13:55:20.874Z,37.70
2018-08-16T14:00:17.687Z,37.10
2018-08-16T14:02:46.331Z,37.30
2018-08-16T14:05:15.908Z,36.90
2018-08-16T14:07:44.588Z,36.90
2018-08-16T14:10:13.738Z,36.90
2018-08-16T14:12:43.781Z,37.20
2018-08-16T14:15:12.281Z,37.30
2018-08-16T14:17:40.897Z,37.40
2018-08-16T14:20:09.640Z,37.50
2018-08-16T14:22:38.236Z,36.90
2018-08-16T14:25:09.867Z,37.00
2018-08-16T14:27:43.225Z,37.00
2018-08-16T14:30:22.496Z,36.50
2018-08-16T14:32:54.850Z,36.90
2018-08-16T14:35:25.862Z,36.80
2018-08-16T14:37:57.331Z,36.80
2018-08-16T14:40:29.498Z,36.70
2018-08-16T14:43:02.229Z,36.80
2018-08-16T14:54:14.227Z,37.50
2018-08-16T14:56:42.876Z,36.40
2018-08-16T15:00:59.406Z,36.30
2018-08-16T15:03:28.063Z,36.20
2018-08-16T15:05:56.749Z,36.50
2018-08-16T15:08:25.371Z,36.20
2018-08-16T15:10:54.037Z,36.30
2018-08-16T15:13:23.802Z,36.40
2018-08-16T15:15:53.302Z,36.50
2018-08-16T15:18:34.156Z,36.30
2018-08-16T15:21:02.864Z,36.30
2018-08-16T15:23:31.684Z,36.20
2018-08-16T15:26:00.651Z,36.30
2018-08-16T15:28:29.441Z,35.80
2018-08-16T15:30:58.537Z,35.70
2018-08-16T15:33:28.233Z,35.90
2018-08-16T15:35:56.941Z,35.80
2018-08-16T15:38:25.704Z,36.00
2018-08-16T15:40:54.567Z,36.20
2018-08-16T15:45:52.681Z,36.30
2018-08-16T15:48:21.908Z,36.20
2018-08-16T15:50:51.326Z,36.30
2018-08-16T15:53:19.961Z,35.90
2018-08-16T15:55:48.644Z,35.90
2018-08-16T15:58:22.802Z,36.00
2018-08-16T16:00:51.844Z,36.50
2018-08-16T16:03:20.921Z,36.40
2018-08-16T16:05:49.843Z,36.60
2018-08-16T16:08:18.301Z,36.50
2018-08-16T16:10:48.139Z,36.60
2018-08-16T16:13:16.838Z,36.80
2018-08-16T16:15:45.992Z,36.70
2018-08-16T16:18:14.737Z,36.90
2018-08-16T16:20:43.997Z,37.00
2018-08-16T16:23:15.889Z,36.90
2018-08-16T16:25:50.107Z,36.90
2018-08-16T16:28:21.246Z,36.80
2018-08-16T16:30:51.256Z,36.90
2018-08-16T16:33:20.091Z,37.10
2018-08-16T16:35:49.832Z,37.30
2018-08-16T16:38:19.727Z,37.10
2018-08-16T16:40:48.373Z,37.10
2018-08-16T16:43:17.048Z,37.30
2018-08-16T16:48:15.460Z,37.30
2018-08-16T16:50:45.199Z,37.30
2018-08-16T16:53:13.953Z,37.40
2018-08-16T17:02:21.358Z,37.40
2018-08-16T17:04:51.414Z,37.60
2018-08-16T17:07:23.870Z,39.30
2018-08-16T17:12:48.312Z,38.90
2018-08-16T17:15:22.484Z,39.00
2018-08-16T17:17:51.207Z,39.70
2018-08-16T17:20:19.811Z,39.80
2018-08-16T17:22:48.542Z,39.10
2018-08-16T17:27:45.571Z,39.40
2018-08-16T17:30:15.852Z,39.40
2018-08-16T17:32:45.454Z,39.50
2018-08-16T17:35:14.366Z,39.70
2018-08-16T17:37:43.127Z,39.80
2018-08-16T17:40:12.341Z,39.90
2018-08-16T17:42:40.907Z,40.20
2018-08-16T17:45:10.320Z,40.30
2018-08-16T17:47:38.897Z,40.40
2018-08-16T17:50:10.124Z,40.60
2018-08-16T17:52:38.845Z,40.70
2018-08-16T17:55:07.542Z,40.90
2018-08-16T17:57:36.116Z,41.00
2018-08-16T18:00:05.708Z,41.10
2018-08-16T18:02:34.444Z,41.30
2018-08-16T18:05:03.168Z,41.40
2018-08-16T18:07:31.839Z,41.50
2018-08-16T18:12:28.757Z,41.80
2018-08-16T18:14:57.305Z,41.90
2018-08-16T18:17:25.859Z,42.10
2018-08-16T18:19:54.449Z,42.10
2018-08-16T18:24:53.539Z,42.40
2018-08-16T18:27:22.747Z,42.50
2018-08-16T18:29:51.584Z,42.70
2018-08-16T18:32:20.165Z,42.60
2018-08-16T18:34:49.088Z,42.70
2018-08-16T18:37:17.717Z,42.90
2018-08-16T18:39:46.321Z,42.80
2018-08-16T18:42:15.203Z,42.90
2018-08-16T18:44:43.905Z,42.90
2018-08-16T18:47:12.627Z,42.90
2018-08-16T18:49:42.334Z,43.10
2018-08-16T18:52:34.109Z,43.10
2018-08-16T18:55:02.974Z,43.40
2018-08-16T18:57:32.339Z,43.70
2018-08-16T19:00:00.987Z,43.80
2018-08-16T19:02:29.614Z,43.70
2018-08-16T19:04:58.280Z,43.80
2018-08-16T19:07:26.901Z,43.90
2018-08-16T19:09:55.492Z,43.90
2018-08-16T19:12:23.992Z,44.00
2018-08-16T19:17:25.699Z,44.10
2018-08-16T19:20:10.038Z,44.10
2018-08-16T19:22:44.337Z,44.20
2018-08-16T19:25:13.062Z,44.20
2018-08-16T19:30:46.316Z,44.00
2018-08-16T19:33:17.649Z,44.10
2018-08-16T19:35:48.691Z,44.10
2018-08-16T19:38:17.461Z,44.00
2018-08-16T19:43:15.640Z,44.20
2018-08-16T19:45:46.697Z,44.20
2018-08-16T19:50:44.486Z,44.40
2018-08-16T19:53:13.118Z,44.40
2018-08-16T19:55:45.125Z,44.40
2018-08-16T20:00:57.107Z,44.40
2018-08-16T20:03:32.798Z,44.50
2018-08-16T20:06:05.896Z,44.60
2018-08-16T20:08:38.791Z,44.70
2018-08-16T20:11:08.610Z,44.80
2018-08-16T20:16:09.652Z,44.30
2018-08-16T20:21:06.312Z,45.00
2018-08-16T20:26:06.093Z,45.40
2018-08-16T20:28:39.806Z,45.60
2018-08-16T20:31:10.674Z,45.60
2018-08-16T20:33:47.151Z,46.30
2018-08-16T20:39:06.861Z,45.90
2018-08-16T20:41:48.741Z,46.10
2018-08-16T20:44:25.434Z,46.10
2018-08-16T20:46:54.266Z,46.10
2018-08-16T20:49:23.057Z,46.20
2018-08-16T20:54:20.986Z,46.40
2018-08-16T20:56:49.707Z,46.30
2018-08-16T20:59:18.567Z,46.40
2018-08-16T21:01:47.210Z,46.50
2018-08-16T21:06:44.204Z,46.60
2018-08-16T21:09:14.727Z,46.80
2018-08-16T21:11:43.332Z,46.70
2018-08-16T21:14:11.956Z,46.90
2018-08-16T21:16:40.540Z,47.00
2018-08-16T21:19:09.289Z,47.00
2018-08-16T21:21:37.948Z,47.10
2018-08-16T21:24:06.692Z,48.00
2018-08-16T21:29:32.328Z,47.60
2018-08-16T21:32:01.159Z,47.60
2018-08-16T21:34:30.888Z,48.00
2018-08-16T21:36:59.514Z,48.00
2018-08-16T21:39:28.169Z,48.10
2018-08-16T21:41:56.828Z,48.10
2018-08-16T21:44:26.225Z,48.10
2018-08-16T21:46:55.114Z,48.10
2018-08-16T21:49:23.887Z,48.20
2018-08-16T21:51:54.271Z,48.10
2018-08-16T21:54:23.366Z,48.10
2018-08-16T21:56:52.217Z,48.20
2018-08-16T21:59:21.230Z,48.50
2018-08-16T22:01:50.413Z,48.60
2018-08-16T22:04:19.267Z,48.80
2018-08-16T22:07:05.765Z,49.00
2018-08-16T22:09:34.463Z,49.20
2018-08-16T22:12:08.505Z,49.40
2018-08-16T22:14:42.869Z,49.60
2018-08-16T22:17:11.779Z,49.60
2018-08-16T22:19:48.214Z,49.70
2018-08-16T22:22:16.954Z,49.70
2018-08-16T22:24:45.602Z,49.70
2018-08-16T22:27:14.210Z,49.80
2018-08-16T22:29:43.588Z,49.90
2018-08-16T22:32:20.085Z,50.00
2018-08-16T22:34:53.149Z,50.20
2018-08-16T22:37:34.425Z,50.30
2018-08-16T22:40:15.356Z,50.20
2018-08-16T22:42:44.123Z,50.10
2018-08-16T22:45:16.971Z,50.20
2018-08-16T22:47:47.054Z,50.30
2018-08-16T22:50:15.735Z,50.30
2018-08-16T22:52:44.468Z,50.30
2018-08-16T22:55:13.199Z,50.50
2018-08-16T22:57:41.836Z,50.60
2018-08-16T23:00:11.550Z,50.80
2018-08-16T23:02:41.647Z,51.00
2018-08-16T23:05:10.558Z,51.00
2018-08-16T23:07:39.223Z,51.10
2018-08-16T23:10:07.931Z,51.10
2018-08-16T23:12:44.732Z,51.00
2018-08-16T23:15:13.848Z,51.10
2018-08-16T23:17:42.600Z,51.20
2018-08-16T23:20:11.384Z,51.30
2018-08-16T23:22:45.663Z,51.50
2018-08-16T23:25:26.624Z,51.50
2018-08-16T23:27:57.497Z,51.50
2018-08-16T23:30:26.114Z,51.70
2018-08-16T23:33:11.057Z,51.60
2018-08-16T23:35:39.822Z,51.80
2018-08-16T23:40:36.738Z,51.80
2018-08-16T23:43:08.531Z,51.80
2018-08-16T23:48:35.332Z,51.80
2018-08-16T23:51:08.858Z,51.80
2018-08-16T23:56:06.130Z,51.90
2018-08-16T23:58:34.923Z,51.90
